createdAt,value
2022-12-25T00:00:20.418Z,9.75
2022-12-25T00:01:18.809Z,9.73
2022-12-25T00:02:20.730Z,9.72
2022-12-25T00:03:24.382Z,9.72
2022-12-25T00:04:26.214Z,9.74
2022-12-25T00:05:28.036Z,9.73
2022-12-25T00:06:30.179Z,9.73
2022-12-25T00:07:31.995Z,9.75
2022-12-25T00:08:33.762Z,9.76
2022-12-25T00:09:35.594Z,9.74
2022-12-25T00:10:44.556Z,9.73
2022-12-25T00:11:41.006Z,9.72
2022-12-25T00:12:43.002Z,9.71
2022-12-25T00:13:44.785Z,9.70
2022-12-25T00:14:46.572Z,9.68
2022-12-25T00:15:48.376Z,9.69
2022-12-25T00:16:50.208Z,9.70
2022-12-25T00:17:52.133Z,9.70
2022-12-25T00:18:53.877Z,9.69
2022-12-25T00:19:55.669Z,9.66
2022-12-25T00:20:57.441Z,9.65
2022-12-25T00:21:59.214Z,9.66
2022-12-25T00:23:00.948Z,9.64
2022-12-25T00:24:02.722Z,9.64
2022-12-25T00:25:04.514Z,9.63
2022-12-25T00:26:06.923Z,9.63
2022-12-25T00:27:08.716Z,9.62
2022-12-25T00:28:10.632Z,9.62
2022-12-25T00:29:12.425Z,9.62
2022-12-25T00:30:15.726Z,9.58
2022-12-25T00:31:17.555Z,9.58
2022-12-25T00:32:19.395Z,9.55
2022-12-25T00:33:21.236Z,9.53
2022-12-25T00:34:23.033Z,9.53
2022-12-25T00:35:24.823Z,9.53
2022-12-25T00:36:26.598Z,9.52
2022-12-25T00:37:28.401Z,9.52
2022-12-25T00:38:30.245Z,9.52
2022-12-25T00:39:32.013Z,9.51
2022-12-25T00:40:34.103Z,9.50
2022-12-25T00:41:35.898Z,9.50
2022-12-25T00:42:37.687Z,9.50
2022-12-25T00:43:39.515Z,9.50
2022-12-25T00:44:41.298Z,9.50
2022-12-25T00:45:43.176Z,9.52
2022-12-25T00:46:45.158Z,9.52
2022-12-25T00:47:46.868Z,9.53
2022-12-25T00:48:48.699Z,9.54
2022-12-25T00:49:50.468Z,9.56
2022-12-25T00:50:52.563Z,9.58
2022-12-25T00:51:54.349Z,9.58
2022-12-25T00:52:56.159Z,9.58
2022-12-25T00:53:57.981Z,9.57
2022-12-25T00:54:59.774Z,9.57
2022-12-25T00:56:01.565Z,9.57
2022-12-25T00:57:03.359Z,9.54
2022-12-25T00:58:05.156Z,9.52
2022-12-25T00:59:07.014Z,9.51
2022-12-25T01:00:09.616Z,9.50
2022-12-25T01:01:11.470Z,9.50
2022-12-25T01:02:13.400Z,9.48
2022-12-25T01:03:15.234Z,9.46
2022-12-25T01:04:17.022Z,9.44
2022-12-25T01:05:18.828Z,9.42
2022-12-25T01:06:20.718Z,9.39
2022-12-25T01:07:22.499Z,9.38
2022-12-25T01:08:24.300Z,9.38
2022-12-25T01:09:26.130Z,9.37
2022-12-25T01:10:27.920Z,9.38
2022-12-25T01:11:29.712Z,9.39
2022-12-25T01:12:31.509Z,9.39
2022-12-25T01:13:33.301Z,9.40
2022-12-25T01:14:35.149Z,9.38
2022-12-25T01:15:36.927Z,9.38
2022-12-25T01:16:38.788Z,9.38
2022-12-25T01:17:40.620Z,9.39
2022-12-25T01:18:42.407Z,9.38
2022-12-25T01:19:44.250Z,9.39
2022-12-25T01:20:46.324Z,9.39
2022-12-25T01:21:48.127Z,9.39
2022-12-25T01:22:49.935Z,9.39
2022-12-25T01:23:51.715Z,9.40
2022-12-25T01:24:53.555Z,9.40
2022-12-25T01:25:55.337Z,9.42
2022-12-25T01:26:57.253Z,9.42
2022-12-25T01:27:59.048Z,9.42
2022-12-25T01:29:00.833Z,9.41
2022-12-25T01:30:02.731Z,9.42
2022-12-25T01:31:04.552Z,9.42
2022-12-25T01:32:06.392Z,9.42
2022-12-25T01:33:08.121Z,9.40
2022-12-25T01:34:09.899Z,9.42
2022-12-25T01:35:11.719Z,9.42
2022-12-25T01:36:13.901Z,9.43
2022-12-25T01:37:15.687Z,9.44
2022-12-25T01:38:17.463Z,9.44
2022-12-25T01:39:19.240Z,9.45
2022-12-25T01:40:21.192Z,9.46
2022-12-25T01:41:22.976Z,9.44
2022-12-25T01:42:24.775Z,9.43
2022-12-25T01:43:26.558Z,9.41
2022-12-25T01:44:28.477Z,9.41
2022-12-25T01:45:30.445Z,9.43
2022-12-25T01:46:32.574Z,9.43
2022-12-25T01:47:34.368Z,9.42
2022-12-25T01:48:36.149Z,9.42
2022-12-25T01:49:37.944Z,9.42
2022-12-25T01:50:39.851Z,9.42
2022-12-25T01:51:41.716Z,9.43
2022-12-25T01:52:43.486Z,9.43
2022-12-25T01:53:45.267Z,9.43
2022-12-25T01:54:47.048Z,9.43
2022-12-25T01:55:48.893Z,9.42
2022-12-25T01:56:50.685Z,9.43
2022-12-25T01:57:52.465Z,9.44
2022-12-25T01:58:54.253Z,9.44
2022-12-25T01:59:56.045Z,9.44
2022-12-25T02:00:58.015Z,9.44
2022-12-25T02:02:00.011Z,9.43
2022-12-25T02:03:03.118Z,9.41
2022-12-25T02:04:04.928Z,9.39
2022-12-25T02:05:06.705Z,9.37
2022-12-25T02:06:09.137Z,9.37
2022-12-25T02:07:10.913Z,9.37
2022-12-25T02:08:12.744Z,9.37
2022-12-25T02:09:14.512Z,9.37
2022-12-25T02:10:16.709Z,9.37
2022-12-25T02:11:18.517Z,9.37
2022-12-25T02:12:20.316Z,9.37
2022-12-25T02:13:22.114Z,9.37
2022-12-25T02:14:23.889Z,9.39
2022-12-25T02:15:25.682Z,9.41
2022-12-25T02:16:27.953Z,9.41
2022-12-25T02:17:29.771Z,9.42
2022-12-25T02:18:31.587Z,9.42
2022-12-25T02:19:33.413Z,9.41
2022-12-25T02:20:35.323Z,9.41
2022-12-25T02:21:37.160Z,9.41
2022-12-25T02:22:38.981Z,9.41
2022-12-25T02:23:41.080Z,9.41
2022-12-25T02:24:42.907Z,9.42
2022-12-25T02:25:44.704Z,9.41
2022-12-25T02:26:46.567Z,9.39
2022-12-25T02:27:48.371Z,9.38
2022-12-25T02:28:50.188Z,9.38
2022-12-25T02:29:51.997Z,9.37
2022-12-25T02:30:53.908Z,9.35
2022-12-25T02:31:55.886Z,9.34
2022-12-25T02:32:57.754Z,9.33
2022-12-25T02:33:59.559Z,9.33
2022-12-25T02:35:02.184Z,9.34
2022-12-25T02:36:03.986Z,9.35
2022-12-25T02:37:05.839Z,9.34
2022-12-25T02:38:07.658Z,9.34
2022-12-25T02:39:09.462Z,9.34
2022-12-25T02:40:11.590Z,9.34
2022-12-25T02:41:13.409Z,9.35
2022-12-25T02:42:15.256Z,9.35
2022-12-25T02:43:17.065Z,9.36
2022-12-25T02:44:18.870Z,9.34
2022-12-25T02:45:20.694Z,9.32
2022-12-25T02:46:22.756Z,9.30
2022-12-25T02:47:24.772Z,9.30
2022-12-25T02:48:26.590Z,9.30
2022-12-25T02:49:28.415Z,9.31
2022-12-25T02:50:30.324Z,9.33
2022-12-25T02:51:32.224Z,9.32
2022-12-25T02:52:34.089Z,9.31
2022-12-25T02:53:35.896Z,9.30
2022-12-25T02:54:37.720Z,9.28
2022-12-25T02:55:39.520Z,9.26
2022-12-25T02:56:41.350Z,9.27
2022-12-25T02:57:43.220Z,9.28
2022-12-25T02:58:45.018Z,9.29
2022-12-25T02:59:46.855Z,9.30
2022-12-25T03:00:48.765Z,9.29
2022-12-25T03:01:50.600Z,9.28
2022-12-25T03:02:53.504Z,9.26
2022-12-25T03:03:55.261Z,9.27
2022-12-25T03:04:57.070Z,9.26
2022-12-25T03:05:58.878Z,9.27
2022-12-25T03:07:01.019Z,9.27
2022-12-25T03:08:02.856Z,9.23
2022-12-25T03:09:04.669Z,9.22
2022-12-25T03:10:07.206Z,9.21
2022-12-25T03:11:09.029Z,9.18
2022-12-25T03:12:10.827Z,9.18
2022-12-25T03:13:12.679Z,9.17
2022-12-25T03:14:14.484Z,9.15
2022-12-25T03:15:16.310Z,9.15
2022-12-25T03:16:19.631Z,9.16
2022-12-25T03:17:21.476Z,9.17
2022-12-25T03:18:23.395Z,9.16
2022-12-25T03:19:25.202Z,9.16
2022-12-25T03:20:27.223Z,9.16
2022-12-25T03:21:29.040Z,9.17
2022-12-25T03:22:30.846Z,9.16
2022-12-25T03:23:32.691Z,9.14
2022-12-25T03:24:34.504Z,9.13
2022-12-25T03:25:36.321Z,9.13
2022-12-25T03:26:38.139Z,9.14
2022-12-25T03:27:39.941Z,9.14
2022-12-25T03:28:41.804Z,9.15
2022-12-25T03:29:43.611Z,9.14
2022-12-25T03:30:45.483Z,9.16
2022-12-25T03:31:47.272Z,9.16
2022-12-25T03:32:49.083Z,9.17
2022-12-25T03:33:51.048Z,9.17
2022-12-25T03:34:52.873Z,9.17
2022-12-25T03:35:54.673Z,9.17
2022-12-25T03:36:56.498Z,9.19
2022-12-25T03:37:58.295Z,9.17
2022-12-25T03:39:00.170Z,9.17
2022-12-25T03:40:02.055Z,9.15
2022-12-25T03:41:03.874Z,9.15
2022-12-25T03:42:05.692Z,9.15
2022-12-25T03:43:07.498Z,9.15
2022-12-25T03:44:09.370Z,9.15
2022-12-25T03:45:11.167Z,9.15
2022-12-25T03:46:13.325Z,9.14
2022-12-25T03:47:15.203Z,9.15
2022-12-25T03:48:17.002Z,9.17
2022-12-25T03:49:18.892Z,9.17
2022-12-25T03:50:20.705Z,9.21
2022-12-25T03:51:22.519Z,9.23
2022-12-25T03:52:24.348Z,9.26
2022-12-25T03:53:26.181Z,9.26
2022-12-25T03:54:28.039Z,9.27
2022-12-25T03:55:29.850Z,9.27
2022-12-25T03:56:31.766Z,9.28
2022-12-25T03:57:33.565Z,9.31
2022-12-25T03:58:35.376Z,9.31
2022-12-25T03:59:37.247Z,9.31
2022-12-25T04:00:39.065Z,9.30
2022-12-25T04:01:40.974Z,9.29
2022-12-25T04:02:43.009Z,9.29
2022-12-25T04:03:45.105Z,9.28
2022-12-25T04:04:47.012Z,9.29
2022-12-25T04:05:48.844Z,9.30
2022-12-25T04:06:50.769Z,9.32
2022-12-25T04:07:52.552Z,9.34
2022-12-25T04:08:54.361Z,9.35
2022-12-25T04:09:56.215Z,9.37
2022-12-25T04:10:58.030Z,9.37
2022-12-25T04:12:02.817Z,9.37
2022-12-25T04:13:03.448Z,9.38
2022-12-25T04:14:05.259Z,9.38
2022-12-25T04:15:07.107Z,9.38
2022-12-25T04:16:09.801Z,9.39
2022-12-25T04:17:11.650Z,9.41
2022-12-25T04:18:13.457Z,9.41
2022-12-25T04:19:15.267Z,9.42
2022-12-25T04:20:17.140Z,9.42
2022-12-25T04:21:18.950Z,9.41
2022-12-25T04:22:20.779Z,9.41
2022-12-25T04:23:22.576Z,9.40
2022-12-25T04:24:24.392Z,9.42
2022-12-25T04:25:26.231Z,9.43
2022-12-25T04:26:28.053Z,9.45
2022-12-25T04:27:29.860Z,9.46
2022-12-25T04:28:31.685Z,9.47
2022-12-25T04:29:33.472Z,9.48
2022-12-25T04:30:35.425Z,9.50
2022-12-25T04:31:37.261Z,9.49
2022-12-25T04:32:39.360Z,9.51
2022-12-25T04:33:41.154Z,9.51
2022-12-25T04:34:42.927Z,9.51
2022-12-25T04:35:44.821Z,9.50
2022-12-25T04:36:46.599Z,9.49
2022-12-25T04:37:48.403Z,9.50
2022-12-25T04:38:50.190Z,9.49
2022-12-25T04:39:51.970Z,9.48
2022-12-25T04:40:53.892Z,9.48
2022-12-25T04:41:55.663Z,9.48
2022-12-25T04:42:57.451Z,9.47
2022-12-25T04:43:59.244Z,9.47
2022-12-25T04:45:01.043Z,9.47
2022-12-25T04:46:02.927Z,9.48
2022-12-25T04:47:10.986Z,9.48
2022-12-25T04:48:08.330Z,9.49
2022-12-25T04:49:10.121Z,9.50
2022-12-25T04:50:12.717Z,9.50
2022-12-25T04:51:14.612Z,9.50
2022-12-25T04:52:16.379Z,9.49
2022-12-25T04:53:18.162Z,9.49
2022-12-25T04:54:19.962Z,9.49
2022-12-25T04:55:21.757Z,9.49
2022-12-25T04:56:23.616Z,9.49
2022-12-25T04:57:25.362Z,9.48
2022-12-25T04:58:27.138Z,9.48
2022-12-25T04:59:28.941Z,9.49
2022-12-25T05:00:30.839Z,9.49
2022-12-25T05:01:32.728Z,9.49
2022-12-25T05:02:34.757Z,9.50
2022-12-25T05:03:36.655Z,9.50
2022-12-25T05:04:38.521Z,9.49
2022-12-25T05:05:40.309Z,9.49
2022-12-25T05:06:42.301Z,9.51
2022-12-25T05:07:44.080Z,9.50
2022-12-25T05:08:45.866Z,9.49
2022-12-25T05:09:47.659Z,9.49
2022-12-25T05:10:49.479Z,9.49
2022-12-25T05:11:51.336Z,9.50
2022-12-25T05:12:53.084Z,9.50
2022-12-25T05:13:54.854Z,9.52
2022-12-25T05:14:56.956Z,9.52
2022-12-25T05:15:58.830Z,9.51
2022-12-25T05:17:00.671Z,9.51
2022-12-25T05:18:02.462Z,9.51
2022-12-25T05:19:04.266Z,9.52
2022-12-25T05:20:06.482Z,9.51
2022-12-25T05:21:08.238Z,9.50
2022-12-25T05:22:10.094Z,9.50
2022-12-25T05:23:11.880Z,9.51
2022-12-25T05:24:13.663Z,9.51
2022-12-25T05:25:15.445Z,9.52
2022-12-25T05:26:17.223Z,9.53
2022-12-25T05:27:19.068Z,9.53
2022-12-25T05:28:20.857Z,9.52
2022-12-25T05:29:22.631Z,9.52
2022-12-25T05:30:24.717Z,9.52
2022-12-25T05:31:26.570Z,9.52
2022-12-25T05:32:28.346Z,9.52
2022-12-25T05:33:30.189Z,9.52
2022-12-25T05:34:31.929Z,9.52
2022-12-25T05:35:33.729Z,9.50
2022-12-25T05:36:35.547Z,9.51
2022-12-25T05:37:37.354Z,9.50
2022-12-25T05:38:39.134Z,9.52
2022-12-25T05:39:40.922Z,9.52
2022-12-25T05:40:42.719Z,9.52
2022-12-25T05:41:44.519Z,9.54
2022-12-25T05:42:46.349Z,9.53
2022-12-25T05:43:48.146Z,9.53
2022-12-25T05:44:49.918Z,9.54
2022-12-25T05:45:51.698Z,9.53
2022-12-25T05:46:53.649Z,9.54
2022-12-25T05:47:55.436Z,9.55
2022-12-25T05:48:57.209Z,9.54
2022-12-25T05:49:58.997Z,9.55
2022-12-25T05:51:00.885Z,9.55
2022-12-25T05:52:02.688Z,9.55
2022-12-25T05:53:08.394Z,9.55
2022-12-25T05:54:08.146Z,9.55
2022-12-25T05:55:10.049Z,9.54
2022-12-25T05:56:12.139Z,9.54
2022-12-25T05:57:13.915Z,9.53
2022-12-25T05:58:15.742Z,9.54
2022-12-25T05:59:17.525Z,9.54
2022-12-25T06:00:19.926Z,9.54
2022-12-25T06:01:21.760Z,9.53
2022-12-25T06:02:23.674Z,9.52
2022-12-25T06:03:25.682Z,9.52
2022-12-25T06:04:27.518Z,9.52
2022-12-25T06:05:29.331Z,9.51
2022-12-25T06:06:31.315Z,9.52
2022-12-25T06:07:33.099Z,9.50
2022-12-25T06:08:34.973Z,9.52
2022-12-25T06:09:36.769Z,9.52
2022-12-25T06:10:38.664Z,9.52
2022-12-25T06:11:40.452Z,9.53
2022-12-25T06:12:42.255Z,9.53
2022-12-25T06:13:44.086Z,9.53
2022-12-25T06:14:45.892Z,9.54
2022-12-25T06:15:47.670Z,9.54
2022-12-25T06:16:49.604Z,9.54
2022-12-25T06:17:51.381Z,9.54
2022-12-25T06:18:53.248Z,9.52
2022-12-25T06:19:55.046Z,9.53
2022-12-25T06:20:56.831Z,9.53
2022-12-25T06:21:58.625Z,9.54
2022-12-25T06:23:00.413Z,9.54
2022-12-25T06:24:02.434Z,9.54
2022-12-25T06:25:04.310Z,9.56
2022-12-25T06:26:06.503Z,9.55
2022-12-25T06:27:08.300Z,9.55
2022-12-25T06:28:10.076Z,9.54
2022-12-25T06:29:11.926Z,9.53
2022-12-25T06:30:13.812Z,9.52
2022-12-25T06:31:15.864Z,9.51
2022-12-25T06:32:17.682Z,9.52
2022-12-25T06:33:19.479Z,9.52
2022-12-25T06:34:21.315Z,9.53
2022-12-25T06:35:23.101Z,9.53
2022-12-25T06:36:24.896Z,9.54
2022-12-25T06:37:26.674Z,9.56
2022-12-25T06:38:28.501Z,9.57
2022-12-25T06:39:30.355Z,9.57
2022-12-25T06:40:32.230Z,9.57
2022-12-25T06:41:34.015Z,9.58
2022-12-25T06:42:35.810Z,9.58
2022-12-25T06:43:37.652Z,9.58
2022-12-25T06:44:39.531Z,9.58
2022-12-25T06:45:41.316Z,9.60
2022-12-25T06:46:43.124Z,9.59
2022-12-25T06:47:44.913Z,9.59
2022-12-25T06:48:46.741Z,9.59
2022-12-25T06:49:48.585Z,9.58
2022-12-25T06:50:50.399Z,9.58
2022-12-25T06:51:52.206Z,9.58
2022-12-25T06:52:54.023Z,9.55
2022-12-25T06:53:56.348Z,9.54
2022-12-25T06:54:58.268Z,9.52
2022-12-25T06:56:00.109Z,9.51
2022-12-25T06:57:01.883Z,9.52
2022-12-25T06:58:03.713Z,9.52
2022-12-25T06:59:05.529Z,9.53
2022-12-25T07:00:07.682Z,9.52
2022-12-25T07:01:09.558Z,9.52
2022-12-25T07:02:11.522Z,9.51
2022-12-25T07:03:13.397Z,9.52
2022-12-25T07:04:15.246Z,9.49
2022-12-25T07:05:17.115Z,9.47
2022-12-25T07:06:18.949Z,9.46
2022-12-25T07:07:20.780Z,9.44
2022-12-25T07:08:22.561Z,9.42
2022-12-25T07:09:24.376Z,9.43
2022-12-25T07:10:26.252Z,9.42
2022-12-25T07:11:28.073Z,9.42
2022-12-25T07:12:29.881Z,9.42
2022-12-25T07:13:31.689Z,9.43
2022-12-25T07:14:33.504Z,9.43
2022-12-25T07:15:35.354Z,9.43
2022-12-25T07:16:37.268Z,9.45
2022-12-25T07:17:39.103Z,9.47
2022-12-25T07:18:40.927Z,9.49
2022-12-25T07:19:45.134Z,9.52
2022-12-25T07:20:46.447Z,9.54
2022-12-25T07:21:48.281Z,9.56
2022-12-25T07:22:50.080Z,9.58
2022-12-25T07:23:51.909Z,9.59
2022-12-25T07:24:53.707Z,9.62
2022-12-25T07:25:55.619Z,9.61
2022-12-25T07:26:57.544Z,9.63
2022-12-25T07:27:59.351Z,9.62
2022-12-25T07:29:01.174Z,9.63
2022-12-25T07:30:02.979Z,9.61
2022-12-25T07:31:04.843Z,9.61
2022-12-25T07:32:06.750Z,9.62
2022-12-25T07:33:08.553Z,9.60
2022-12-25T07:34:10.416Z,9.61
2022-12-25T07:35:12.242Z,9.62
2022-12-25T07:36:14.201Z,9.64
2022-12-25T07:37:16.003Z,9.63
2022-12-25T07:38:17.804Z,9.64
2022-12-25T07:39:19.620Z,9.64
2022-12-25T07:40:21.451Z,9.65
2022-12-25T07:41:23.422Z,9.66
2022-12-25T07:42:25.646Z,9.68
2022-12-25T07:43:27.579Z,9.67
2022-12-25T07:44:29.386Z,9.67
2022-12-25T07:45:31.217Z,9.64
2022-12-25T07:46:33.484Z,9.65
2022-12-25T07:47:35.390Z,9.65
2022-12-25T07:48:37.239Z,9.67
2022-12-25T07:49:39.036Z,9.67
2022-12-25T07:50:40.866Z,9.68
2022-12-25T07:51:42.710Z,9.69
2022-12-25T07:52:44.557Z,9.70
2022-12-25T07:53:46.385Z,9.71
2022-12-25T07:54:48.215Z,9.71
2022-12-25T07:55:50.025Z,9.69
2022-12-25T07:56:52.014Z,9.68
2022-12-25T07:57:53.833Z,9.66
2022-12-25T07:58:55.651Z,9.65
2022-12-25T07:59:57.472Z,9.63
2022-12-25T08:00:59.479Z,9.62
2022-12-25T08:02:01.500Z,9.64
2022-12-25T08:03:03.814Z,9.63
2022-12-25T08:04:05.818Z,9.63
2022-12-25T08:05:07.711Z,9.63
2022-12-25T08:06:10.632Z,9.64
2022-12-25T08:07:12.485Z,9.66
2022-12-25T08:08:14.311Z,9.67
2022-12-25T08:09:16.129Z,9.68
2022-12-25T08:10:18.046Z,9.69
2022-12-25T08:11:19.857Z,9.71
2022-12-25T08:12:21.864Z,9.72
2022-12-25T08:13:23.722Z,9.73
2022-12-25T08:14:25.516Z,9.72
2022-12-25T08:15:27.332Z,9.74
2022-12-25T08:16:29.273Z,9.74
2022-12-25T08:17:31.195Z,9.74
2022-12-25T08:18:33.002Z,9.74
2022-12-25T08:19:34.825Z,9.75
2022-12-25T08:20:36.677Z,9.75
2022-12-25T08:21:38.498Z,9.76
2022-12-25T08:22:40.330Z,9.78
2022-12-25T08:23:42.149Z,9.79
2022-12-25T08:24:43.950Z,9.80
2022-12-25T08:25:45.780Z,9.81
2022-12-25T08:26:47.697Z,9.82
2022-12-25T08:27:49.738Z,9.84
2022-12-25T08:28:51.537Z,9.84
2022-12-25T08:29:53.375Z,9.85
2022-12-25T08:30:55.360Z,9.84
2022-12-25T08:31:57.188Z,9.83
2022-12-25T08:32:59.046Z,9.84
2022-12-25T08:34:00.898Z,9.85
2022-12-25T08:35:02.735Z,9.86
2022-12-25T08:36:04.518Z,9.87
2022-12-25T08:37:06.346Z,9.87
2022-12-25T08:38:08.282Z,9.88
2022-12-25T08:39:10.096Z,9.89
2022-12-25T08:40:12.883Z,9.89
2022-12-25T08:41:14.663Z,9.88
2022-12-25T08:42:16.483Z,9.88
2022-12-25T08:43:18.364Z,9.88
2022-12-25T08:44:20.189Z,9.88
2022-12-25T08:45:22.030Z,9.89
2022-12-25T08:46:23.892Z,9.90
2022-12-25T08:47:25.798Z,9.92
2022-12-25T08:48:27.624Z,9.93
2022-12-25T08:49:29.440Z,9.95
2022-12-25T08:50:31.583Z,9.96
2022-12-25T08:51:33.484Z,9.96
2022-12-25T08:52:35.284Z,9.99
2022-12-25T08:53:37.127Z,9.97
2022-12-25T08:54:38.964Z,9.98
2022-12-25T08:55:40.750Z,9.95
2022-12-25T08:56:42.545Z,9.92
2022-12-25T08:57:44.401Z,9.90
2022-12-25T08:58:46.470Z,9.88
2022-12-25T08:59:48.357Z,9.86
2022-12-25T09:00:50.564Z,9.83
2022-12-25T09:01:52.519Z,9.80
2022-12-25T09:02:54.663Z,9.79
2022-12-25T09:03:56.538Z,9.78
2022-12-25T09:04:58.342Z,9.75
2022-12-25T09:06:00.198Z,9.73
2022-12-25T09:07:02.156Z,9.73
2022-12-25T09:08:04.031Z,9.73
2022-12-25T09:09:05.867Z,9.74
2022-12-25T09:10:08.747Z,9.72
2022-12-25T09:11:10.583Z,9.70
2022-12-25T09:12:12.370Z,9.69
2022-12-25T09:13:14.184Z,9.69
2022-12-25T09:14:16.133Z,9.69
2022-12-25T09:15:17.979Z,9.66
2022-12-25T09:16:20.327Z,9.66
2022-12-25T09:17:22.270Z,9.67
2022-12-25T09:18:24.129Z,9.67
2022-12-25T09:19:25.938Z,9.70
2022-12-25T09:20:27.724Z,9.73
2022-12-25T09:21:29.530Z,9.73
2022-12-25T09:22:32.678Z,9.75
2022-12-25T09:23:34.491Z,9.75
2022-12-25T09:24:36.370Z,9.74
2022-12-25T09:25:38.165Z,9.75
2022-12-25T09:26:40.106Z,9.76
2022-12-25T09:27:41.929Z,9.78
2022-12-25T09:28:50.318Z,9.80
2022-12-25T09:29:47.396Z,9.83
2022-12-25T09:30:49.340Z,9.83
2022-12-25T09:31:51.097Z,9.85
2022-12-25T09:32:52.888Z,9.87
2022-12-25T09:33:54.687Z,9.89
2022-12-25T09:34:56.654Z,9.89
2022-12-25T09:35:58.458Z,9.89
2022-12-25T09:37:00.381Z,9.87
2022-12-25T09:38:02.169Z,9.91
2022-12-25T09:39:03.971Z,9.92
2022-12-25T09:40:06.004Z,9.95
2022-12-25T09:41:07.817Z,9.97
2022-12-25T09:42:09.666Z,9.98
2022-12-25T09:43:11.427Z,9.98
2022-12-25T09:44:13.249Z,9.98
2022-12-25T09:45:15.104Z,9.99
2022-12-25T09:46:17.941Z,9.99
2022-12-25T09:47:20.729Z,9.97
2022-12-25T09:48:22.560Z,9.95
2022-12-25T09:49:24.345Z,9.95
2022-12-25T09:50:26.194Z,9.97
2022-12-25T09:51:27.989Z,9.97
2022-12-25T09:52:29.790Z,9.96
2022-12-25T09:53:31.577Z,9.97
2022-12-25T09:54:33.410Z,9.98
2022-12-25T09:55:35.230Z,10.00
2022-12-25T09:56:37.104Z,9.98
2022-12-25T09:57:38.917Z,9.98
2022-12-25T09:58:40.721Z,9.97
2022-12-25T09:59:42.526Z,9.94
2022-12-25T10:00:44.404Z,9.94
2022-12-25T10:01:46.223Z,9.94
2022-12-25T10:02:48.197Z,9.94
2022-12-25T10:03:50.188Z,9.94
2022-12-25T10:04:51.989Z,9.94
2022-12-25T10:05:53.814Z,9.95
2022-12-25T10:06:55.741Z,9.93
2022-12-25T10:07:57.525Z,9.94
2022-12-25T10:08:59.295Z,9.92
2022-12-25T10:10:01.080Z,9.91
2022-12-25T10:11:02.923Z,9.91
2022-12-25T10:12:04.700Z,9.91
2022-12-25T10:13:06.492Z,9.92
2022-12-25T10:14:08.406Z,9.92
2022-12-25T10:15:10.204Z,9.94
2022-12-25T10:16:13.264Z,9.96
2022-12-25T10:17:15.018Z,9.95
2022-12-25T10:18:16.802Z,9.96
2022-12-25T10:19:18.627Z,9.94
2022-12-25T10:20:20.663Z,9.91
2022-12-25T10:21:22.490Z,9.89
2022-12-25T10:22:24.274Z,9.87
2022-12-25T10:23:26.123Z,9.85
2022-12-25T10:24:27.919Z,9.83
2022-12-25T10:25:29.739Z,9.81
2022-12-25T10:26:31.661Z,9.81
2022-12-25T10:27:33.461Z,9.82
2022-12-25T10:28:35.295Z,9.83
2022-12-25T10:29:37.071Z,9.88
2022-12-25T10:30:38.963Z,9.89
2022-12-25T10:31:40.899Z,9.90
2022-12-25T10:32:42.802Z,9.91
2022-12-25T10:33:44.577Z,9.91
2022-12-25T10:34:46.361Z,9.94
2022-12-25T10:35:48.151Z,9.94
2022-12-25T10:36:50.007Z,9.94
2022-12-25T10:37:51.807Z,9.93
2022-12-25T10:38:53.590Z,9.93
2022-12-25T10:39:55.424Z,9.92
2022-12-25T10:40:57.321Z,9.93
2022-12-25T10:41:59.174Z,9.97
2022-12-25T10:43:00.941Z,9.97
2022-12-25T10:44:02.755Z,9.99
2022-12-25T10:45:04.553Z,10.02
2022-12-25T10:46:06.660Z,10.03
2022-12-25T10:47:08.495Z,10.04
2022-12-25T10:48:10.281Z,10.05
2022-12-25T10:49:12.213Z,10.05
2022-12-25T10:50:14.162Z,10.04
2022-12-25T10:51:15.924Z,10.06
2022-12-25T10:52:17.783Z,10.07
2022-12-25T10:53:19.995Z,10.07
2022-12-25T10:54:22.038Z,10.07
2022-12-25T10:55:28.734Z,10.06
2022-12-25T10:56:27.446Z,10.04
2022-12-25T10:57:29.311Z,10.05
2022-12-25T10:58:31.169Z,10.07
2022-12-25T10:59:32.958Z,10.07
2022-12-25T11:00:34.866Z,10.06
2022-12-25T11:01:36.808Z,10.04
2022-12-25T11:02:39.035Z,10.02
2022-12-25T11:03:40.995Z,10.01
2022-12-25T11:04:42.731Z,10.00
2022-12-25T11:05:44.520Z,10.01
2022-12-25T11:06:46.747Z,10.02
2022-12-25T11:07:49.024Z,10.03
2022-12-25T11:08:50.866Z,10.02
2022-12-25T11:09:52.680Z,10.00
2022-12-25T11:10:54.495Z,10.00
2022-12-25T11:11:56.314Z,9.99
2022-12-25T11:12:58.190Z,9.99
2022-12-25T11:14:00.024Z,10.01
2022-12-25T11:15:01.921Z,10.02
2022-12-25T11:16:03.959Z,10.03
2022-12-25T11:17:05.738Z,10.05
2022-12-25T11:18:07.644Z,10.05
2022-12-25T11:19:09.472Z,10.07
2022-12-25T11:20:12.742Z,10.08
2022-12-25T11:21:14.571Z,10.11
2022-12-25T11:22:16.417Z,10.11
2022-12-25T11:23:18.301Z,10.11
2022-12-25T11:24:20.116Z,10.13
2022-12-25T11:25:21.905Z,10.12
2022-12-25T11:26:23.741Z,10.13
2022-12-25T11:27:25.558Z,10.14
2022-12-25T11:28:27.425Z,10.16
2022-12-25T11:29:29.226Z,10.18
2022-12-25T11:30:31.409Z,10.17
2022-12-25T11:31:33.262Z,10.18
2022-12-25T11:32:35.153Z,10.21
2022-12-25T11:33:37.032Z,10.22
2022-12-25T11:34:38.853Z,10.23
2022-12-25T11:35:40.655Z,10.22
2022-12-25T11:36:42.469Z,10.22
2022-12-25T11:37:44.274Z,10.24
2022-12-25T11:38:46.362Z,10.24
2022-12-25T11:39:48.149Z,10.26
2022-12-25T11:40:50.090Z,10.27
2022-12-25T11:41:51.933Z,10.27
2022-12-25T11:42:53.768Z,10.27
2022-12-25T11:43:55.592Z,10.26
2022-12-25T11:44:57.536Z,10.28
2022-12-25T11:45:59.387Z,10.28
2022-12-25T11:47:01.262Z,10.27
2022-12-25T11:48:03.123Z,10.23
2022-12-25T11:49:05.110Z,10.24
2022-12-25T11:50:07.616Z,10.24
2022-12-25T11:51:09.598Z,10.23
2022-12-25T11:52:11.423Z,10.21
2022-12-25T11:53:13.240Z,10.20
2022-12-25T11:54:15.104Z,10.20
2022-12-25T11:55:16.945Z,10.22
2022-12-25T11:56:18.736Z,10.24
2022-12-25T11:57:20.571Z,10.26
2022-12-25T11:58:22.381Z,10.26
2022-12-25T11:59:24.268Z,10.27
2022-12-25T12:00:26.086Z,10.27
2022-12-25T12:01:27.936Z,10.28
2022-12-25T12:02:30.031Z,10.27
2022-12-25T12:03:32.119Z,10.26
2022-12-25T12:04:41.984Z,10.27
2022-12-25T12:05:37.721Z,10.27
2022-12-25T12:06:39.772Z,10.28
2022-12-25T12:07:41.589Z,10.29
2022-12-25T12:08:43.433Z,10.30
2022-12-25T12:09:45.291Z,10.29
2022-12-25T12:10:47.229Z,10.29
2022-12-25T12:11:49.034Z,10.29
2022-12-25T12:12:50.851Z,10.29
2022-12-25T12:13:52.659Z,10.28
2022-12-25T12:14:54.541Z,10.30
2022-12-25T12:15:56.423Z,10.29
2022-12-25T12:16:58.483Z,10.31
2022-12-25T12:18:00.439Z,10.31
2022-12-25T12:19:02.269Z,10.32
2022-12-25T12:20:04.290Z,10.31
2022-12-25T12:21:06.143Z,10.32
2022-12-25T12:22:07.969Z,10.31
2022-12-25T12:23:09.795Z,10.31
2022-12-25T12:24:11.644Z,10.31
2022-12-25T12:25:13.476Z,10.30
2022-12-25T12:26:15.613Z,10.25
2022-12-25T12:27:17.423Z,10.22
2022-12-25T12:28:19.246Z,10.20
2022-12-25T12:29:21.077Z,10.18
2022-12-25T12:30:23.099Z,10.18
2022-12-25T12:31:24.915Z,10.18
2022-12-25T12:32:26.718Z,10.17
2022-12-25T12:33:28.571Z,10.18
2022-12-25T12:34:30.384Z,10.18
2022-12-25T12:35:32.283Z,10.18
2022-12-25T12:36:36.430Z,10.18
2022-12-25T12:37:37.951Z,10.20
2022-12-25T12:38:39.797Z,10.21
2022-12-25T12:39:41.610Z,10.23
2022-12-25T12:40:43.563Z,10.26
2022-12-25T12:41:45.409Z,10.26
2022-12-25T12:42:47.205Z,10.27
2022-12-25T12:43:49.012Z,10.27
2022-12-25T12:44:50.820Z,10.29
2022-12-25T12:45:52.725Z,10.30
2022-12-25T12:46:54.504Z,10.29
2022-12-25T12:47:56.301Z,10.29
2022-12-25T12:48:58.123Z,10.29
2022-12-25T12:49:59.964Z,10.28
2022-12-25T12:51:01.843Z,10.30
2022-12-25T12:52:03.657Z,10.28
2022-12-25T12:53:05.578Z,10.30
2022-12-25T12:54:07.410Z,10.31
2022-12-25T12:55:09.246Z,10.33
2022-12-25T12:56:11.640Z,10.33
2022-12-25T12:57:13.482Z,10.32
2022-12-25T12:58:15.304Z,10.29
2022-12-25T12:59:17.116Z,10.28
2022-12-25T13:00:19.545Z,10.25
2022-12-25T13:01:21.624Z,10.23
2022-12-25T13:02:23.828Z,10.23
2022-12-25T13:03:25.744Z,10.23
2022-12-25T13:04:27.627Z,10.22
2022-12-25T13:05:34.452Z,10.21
2022-12-25T13:06:33.261Z,10.19
2022-12-25T13:07:35.104Z,10.19
2022-12-25T13:08:36.921Z,10.19
2022-12-25T13:09:38.759Z,10.15
2022-12-25T13:10:40.602Z,10.19
2022-12-25T13:11:42.447Z,10.19
2022-12-25T13:12:44.261Z,10.20
2022-12-25T13:13:46.087Z,10.20
2022-12-25T13:14:47.992Z,10.20
2022-12-25T13:15:49.804Z,10.18
2022-12-25T13:16:51.822Z,10.18
2022-12-25T13:17:53.844Z,10.17
2022-12-25T13:18:55.612Z,10.18
2022-12-25T13:19:57.529Z,10.17
2022-12-25T13:20:59.433Z,10.18
2022-12-25T13:22:01.345Z,10.16
2022-12-25T13:23:03.130Z,10.18
2022-12-25T13:24:04.900Z,10.19
2022-12-25T13:25:06.712Z,10.19
2022-12-25T13:26:08.811Z,10.17
2022-12-25T13:27:10.652Z,10.16
2022-12-25T13:28:12.451Z,10.16
2022-12-25T13:29:14.234Z,10.16
2022-12-25T13:30:16.750Z,10.17
2022-12-25T13:31:18.603Z,10.17
2022-12-25T13:32:20.490Z,10.17
2022-12-25T13:33:22.312Z,10.17
2022-12-25T13:34:24.071Z,10.14
2022-12-25T13:35:25.871Z,10.16
2022-12-25T13:36:27.701Z,10.18
2022-12-25T13:37:29.589Z,10.17